M I D A S
Marine Information and Data Acquisition System
Tripno 351 of the Zeeleeuw from 2002-10-29 09:26:45 to 2002-10-29 16:50:00
Back to CruiseResearch ActivitiesStationsMapUnderway DataData graphs

EquipmentUnitsComment
TimeDGPSUTC
LatitudeDGPSDM.mWGS84
LongitudeDGPSDM.mWGS84
TemperatureSBE03/SBE38deg celciusITS90
ConductivitySBE21S/mITS90
SalinitySBE21 Practical Salinity Units
ChlorophylAChelsea fluorimeterg/lCalibrated in Aceton
Missing or incorrect values are displayed as -999
Sea surface data collected by the RV Zeeleeuw from 2002-10-29 09:26:45 to 2002-10-29 16:50:00
Time Latitude Longitude Temperature Conductivity Salinity ChlorophylA
2002-10-29 09:27:46 51°13.689 2°55.773 14.327692 0.027135 0.16748  
2002-10-29 09:28:46 51°13.741 2°55.778 14.340213 0.026823 0.165461  
2002-10-29 09:29:46 51°13.829 2°55.631 14.50905 0.026511 0.163412  
2002-10-29 09:30:46 51°13.948 2°55.54 14.494061 0.026199 0.161425  
2002-10-29 09:31:46 51°14.071 2°55.459 14.519916 0.025784 0.158769  
2002-10-29 09:32:46 51°14.168 2°55.389 -999 0.025472 0.156767  
2002-10-29 09:33:46 51°14.241 2°55.302 -999 0.02516 0.154763  
2002-10-29 09:34:46 51°14.296 2°55.202 -999 0.024952 0.153409  
2002-10-29 09:35:46 51°14.367 2°55.064 -999 0.02464 0.151404  
2002-10-29 09:36:46 51°14.532 2°54.891 -999 0.024432 0.150046  
2002-10-29 09:37:45 51°14.736 2°54.806 -999 0.024121 0.148039  
2002-10-29 09:38:46 51°14.952 2°54.721 -999 0.023913 0.146693  
2002-10-29 09:39:46 51°15.163 2°54.643 31.265109 0.023705 0.145351  
2002-10-29 09:40:46 51°15.376 2°54.56 30.660822 0.023497 0.144011  
2002-10-29 09:41:46 51°15.593 2°54.473 31.277497 0.023185 0.142038  
2002-10-29 09:42:46 51°15.811 2°54.385 31.05173 0.022977 0.140709  
2002-10-29 09:43:46 51°16.034 2°54.296 31.046962 0.022769 0.139384  
2002-10-29 09:44:46 51°16.206 2°54.332 29.990957 0.022562 0.138061  
2002-10-29 09:45:46 51°16.3 2°54.401 29.203124 0.02225 0.136106  
2002-10-29 09:46:46 51°16.381 2°54.349 31.675595 0.022042 0.134786  
2002-10-29 09:47:46 51°16.322 2°54.24 30.731518 0.021938 0.134122  
2002-10-29 09:48:46 51°16.262 2°54.285 29.896958 0.02173 0.132795  
2002-10-29 09:49:47 51°16.263 2°54.276 29.978464 0.021626 0.13212  
2002-10-29 09:50:46 51°16.266 2°54.262 29.873493 0.021522 0.131453  
2002-10-29 09:51:46 51°16.272 2°54.248 28.597695 0.021314 0.13015  
2002-10-29 09:52:46 51°16.276 2°54.237 27.280722 0.02121 0.129489  
2002-10-29 09:53:46 51°16.287 2°54.238 28.762335 0.021106 0.128826  
2002-10-29 09:54:46 51°16.299 2°54.253 28.731517 0.021003 0.128163  
2002-10-29 09:55:46 51°16.307 2°54.275 28.40556 0.020899 0.127494  
2002-10-29 09:56:45 51°16.309 2°54.298 15.824724 0.020795 0.126743  
2002-10-29 09:57:46 51°16.306 2°54.32 15.834222 0.020691 0.126154  
2002-10-29 09:58:46 51°16.299 2°54.335 15.975503 0.020587 0.125513  
2002-10-29 09:59:46 51°16.287 2°54.345 15.912948 0.020483 0.124872  
2002-10-29 10:00:46 51°16.272 2°54.343 15.992268 0.020379 0.124232  
2002-10-29 10:01:45 51°16.263 2°54.325 15.931832 0.020275 0.1236  
2002-10-29 10:02:46 51°16.26 2°54.3 16.144731 0.020171 0.122958  
2002-10-29 10:03:46 51°16.26 2°54.272 16.052566 0.020067 0.122312  
2002-10-29 10:04:46 51°16.261 2°54.243 16.338672 0.019963 0.121677  
2002-10-29 10:05:46 51°16.263 2°54.214 16.141565 0.019859 0.121014  
2002-10-29 10:06:45 51°16.265 2°54.186 15.972243 0.019755 0.120367  
2002-10-29 10:07:46 51°16.267 2°54.157 16.260649 0.019651 0.119715  
2002-10-29 10:08:46 51°16.265 2°54.117 16.370743 0.019651 0.119703  
2002-10-29 10:09:45 51°16.32 2°53.903 16.419886 0.019548 0.119031  
2002-10-29 10:10:46 51°16.457 2°53.637 16.739503 0.019444 0.118393  
2002-10-29 10:11:46 51°16.593 2°53.369 16.740139 0.01934 0.117743  
2002-10-29 10:12:46 51°16.731 2°53.105 16.625031 0.01934 0.117725  
2002-10-29 10:13:46 51°16.871 2°52.851 16.776898 0.019236 0.117069  
2002-10-29 10:14:46 51°17.018 2°52.602 16.758796 0.019132 0.11641  
2002-10-29 10:15:46 51°17.179 2°52.379 17.011442 0.019132 0.116384  
2002-10-29 10:16:46 51°17.349 2°52.173 16.783425 0.019028 0.115722  
2002-10-29 10:17:46 51°17.518 2°51.964 17.106504 0.018924 0.115058  
2002-10-29 10:18:46 51°17.699 2°51.793 16.982204 0.018924 0.11503  
2002-10-29 10:19:46 51°17.889 2°51.644 16.999951 0.01882 0.114367  
2002-10-29 10:20:46 51°18.087 2°51.524 17.081358 0.018716 0.113703  
2002-10-29 10:21:46 51°18.258 2°51.417 17.261395 0.018716 0.113695  
2002-10-29 10:22:46 51°18.372 2°51.321 17.067938 0.018612 0.113035  
2002-10-29 10:23:46 51°18.476 2°51.253 17.225863 0.018612 0.11301  
2002-10-29 10:24:46 51°18.506 2°51.216 17.144964 0.018508 0.112335  
2002-10-29 10:25:46 51°18.509 2°51.198 17.420936 0.018508 0.11232  
2002-10-29 10:26:46 51°18.513 2°51.174 17.438864 0.018404 0.111656  
2002-10-29 10:27:45 51°18.516 2°51.146 17.450617 0.018404 0.111635  
2002-10-29 10:28:46 51°18.519 2°51.117 17.391746 0.0183 0.110987  
2002-10-29 10:29:46 51°18.521 2°51.088 17.806053 0.0183 0.110972  
2002-10-29 10:30:46 51°18.523 2°51.059 17.371873 0.018196 0.110328  
2002-10-29 10:31:46 51°18.523 2°51.029 17.545663 0.018196 0.110315  
2002-10-29 10:32:46 51°18.525 2°50.998 17.590749 0.018092 0.109677  
2002-10-29 10:33:46 51°18.523 2°50.964 17.497905 0.018092 0.109666  
2002-10-29 10:34:46 51°18.522 2°50.792 17.665688 0.017989 0.10901  
2002-10-29 10:35:46 51°18.66 2°50.72 17.801459 0.017989 0.109001  
2002-10-29 10:36:46 51°18.722 2°50.938 18.087138 0.017885 0.108366  
2002-10-29 10:37:46 51°18.775 2°51.191 17.875545 0.017885 0.108368  
2002-10-29 10:38:46 51°18.844 2°51.499 17.83127 0.017781 0.107737  
2002-10-29 10:39:46 51°18.917 2°51.828 18.110881 0.017781 0.107746  
2002-10-29 10:40:46 51°18.989 2°52.158 18.05544 0.017677 0.10713  
2002-10-29 10:41:46 51°19.061 2°52.487 17.88956 0.017677 0.107147  
2002-10-29 10:42:46 51°19.134 2°52.815 18.070417 0.017677 0.107161  
2002-10-29 10:43:46 51°19.205 2°53.144 18.146127 0.017573 0.106554  
2002-10-29 10:44:46 51°19.277 2°53.472 18.186464 0.017573 0.106574  
2002-10-29 10:45:46 51°19.349 2°53.8 18.124973 0.017469 0.10597  
2002-10-29 10:46:46 51°19.421 2°54.127 18.434986 0.017469 0.105993  
2002-10-29 10:47:46 51°19.493 2°54.455 18.344676 0.017365 0.105385  
2002-10-29 10:48:46 51°19.564 2°54.783 18.483261 0.017365 0.105403  
2002-10-29 10:49:46 51°19.634 2°55.109 18.356691 0.017261 0.104802  
2002-10-29 10:50:46 51°19.708 2°55.433 18.224162 0.017261 0.104827  
2002-10-29 10:51:46 51°19.78 2°55.757 18.46163 0.017157 0.104224  
2002-10-29 10:52:46 51°19.853 2°56.082 18.228935 0.017157 0.10424  
2002-10-29 10:53:46 51°19.926 2°56.408 18.634941 0.017053 0.103638  
2002-10-29 10:54:46 51°20 2°56.732 18.466966 0.017053 0.103661  
2002-10-29 10:55:46 51°20.076 2°57.056 18.841646 0.017053 0.10367  
2002-10-29 10:56:46 51°20.149 2°57.38 18.604235 0.016949 0.103075  
2002-10-29 10:57:46 51°20.224 2°57.702 18.435276 0.016949 0.103099  
2002-10-29 10:58:46 51°20.301 2°58.026 18.702495 0.016845 0.102481  
2002-10-29 10:59:46 51°20.376 2°58.349 18.63622 0.016845 0.102511  
2002-10-29 11:00:46 51°20.451 2°58.67 18.713789 0.016741 0.101906  
2002-10-29 11:01:46 51°20.525 2°58.992 18.731509 0.016741 0.101927  
2002-10-29 11:02:46 51°20.6 2°59.311 18.621116 0.016638 0.101316  
2002-10-29 11:03:46 51°20.675 2°59.63 18.979985 0.016638 0.101333  
2002-10-29 11:04:46 51°20.749 2°59.949 19.035803 0.016638 0.101362  
2002-10-29 11:05:46 51°20.824 3°0.266 18.903 0.016534 0.100748  
2002-10-29 11:06:46 51°20.9 3°0.58 19.221648 0.016534 0.100769  
2002-10-29 11:07:46 51°20.964 3°0.9 18.88043 0.016534 0.100787  
2002-10-29 11:08:46 51°21.026 3°1.22 18.975592 0.01643 0.100177  
2002-10-29 11:09:46 51°21.09 3°1.536 28.655118 0.01643 0.10017  
2002-10-29 11:10:46 51°21.152 3°1.851 28.67778 0.016326 0.099585  
2002-10-29 11:11:46 51°21.214 3°2.167 28.757958 0.016326 0.099612  
2002-10-29 11:12:46 51°21.276 3°2.483 28.535156 0.016222 0.098991  
2002-10-29 11:13:46 51°21.339 3°2.8 28.073183 0.016222 0.099001  
2002-10-29 11:14:46 51°21.395 3°3.121 27.381124 0.016222 0.099017  
2002-10-29 11:15:46 51°21.447 3°3.442 28.708512 0.016118 0.098408  
2002-10-29 11:16:46 51°21.497 3°3.763 28.16974 0.016118 0.098421  
2002-10-29 11:17:46 51°21.55 3°4.083 29.75482 0.016118 0.098435  
2002-10-29 11:18:46 51°21.598 3°4.405 12.473053 3.98655 32.622394  
2002-10-29 11:19:46 51°21.638 3°4.728 12.237053 3.835512 32.988303  
2002-10-29 11:20:46 51°21.676 3°5.049 12.291795 3.794828 32.75371  
2002-10-29 11:21:46 51°21.716 3°5.369 12.270094 3.790086 32.736359  
2002-10-29 11:22:46 51°21.753 3°5.69 12.147729 3.799466 32.818994  
2002-10-29 11:23:46 51°21.792 3°6.01 12.228485 3.802206 32.828083  
2002-10-29 11:24:46 51°21.829 3°6.329 12.361561 3.782708 32.6957  
2002-10-29 11:25:46 51°21.866 3°6.649 12.090597 3.789243 32.746174  
2002-10-29 11:26:46 51°21.901 3°6.958 12.195332 3.764791 32.585141  
2002-10-29 11:27:46 51°21.933 3°7.247 12.076965 3.744451 32.444059  
2002-10-29 11:28:46 51°21.966 3°7.537 12.07233 3.733596 32.37091  
2002-10-29 11:29:46 51°21.999 3°7.825 11.919086 3.709989 32.154839  
2002-10-29 11:30:46 51°22.031 3°8.114 12.221094 3.72917 32.339167  
2002-10-29 11:31:46 51°22.064 3°8.403 12.140239 3.727273 32.326341  
2002-10-29 11:32:46 51°22.096 3°8.692 11.889562 3.720107 32.271554  
2002-10-29 11:33:46 51°22.127 3°8.984 12.057331 3.717261 32.255717  
2002-10-29 11:34:46 51°22.16 3°9.276 11.844064 3.703351 32.144638  
2002-10-29 11:35:46 51°22.19 3°9.57 11.921819 3.692285 32.055511  
2002-10-29 11:36:46 51°22.222 3°9.861 12.055194 3.696395 32.081575  
2002-10-29 11:37:46 51°22.254 3°10.154 12.011584 3.687016 31.996482  
2002-10-29 11:38:46 51°22.286 3°10.449 11.884412 3.679745 31.935126  
2002-10-29 11:39:46 51°22.32 3°10.744 11.931339 3.674581 31.886649  
2002-10-29 11:40:46 51°22.352 3°11.036 11.903323 3.661831 31.792675  
2002-10-29 11:41:46 51°22.367 3°11.329 11.879079 3.652979 31.71938  
2002-10-29 11:42:46 51°22.366 3°11.625 11.960481 3.645603 31.669738  
2002-10-29 11:43:46 51°22.367 3°11.924 11.785483 3.643179 31.655766  
2002-10-29 11:44:46 51°22.385 3°12.222 11.805563 3.638648 31.624124  
2002-10-29 11:45:46 51°22.437 3°12.512 11.7485 3.632326 31.579195  
2002-10-29 11:46:46 51°22.503 3°12.796 11.641683 3.621789 31.501563  
2002-10-29 11:47:46 51°22.547 3°12.999 11.603842 3.608723 31.389358  
2002-10-29 11:48:46 51°22.583 3°13.112 11.897947 3.607143 31.385467  
2002-10-29 11:49:46 51°22.602 3°13.19 11.657691 3.603244 31.348447  
2002-10-29 11:50:46 51°22.608 3°13.228 11.698335 3.59766 31.305162  
2002-10-29 11:51:46 51°22.612 3°13.23 11.692485 3.596606 31.292971  
2002-10-29 11:52:46 51°22.617 3°13.225 11.844976 3.595026 31.283037  
2002-10-29 11:53:46 51°22.621 3°13.215 11.878623 3.594288 31.276574  
2002-10-29 11:54:46 51°22.626 3°13.201 11.762017 3.593867 31.271832  
2002-10-29 11:55:47 51°22.632 3°13.183 11.687 3.593129 31.266037  
2002-10-29 11:56:47 51°22.639 3°13.164 11.841693 3.592602 31.259609  
2002-10-29 11:57:47 51°22.646 3°13.144 11.691845 3.592602 31.258941  
2002-10-29 11:58:47 51°22.653 3°13.131 11.731737 3.592391 31.256237  
2002-10-29 11:59:47 51°22.745 3°13.144 11.953287 3.591654 31.249107  
2002-10-29 12:00:47 51°22.813 3°12.898 11.864902 3.589336 31.224035  
2002-10-29 12:01:47 51°22.858 3°12.587 11.921409 3.593761 31.24479  
2002-10-29 12:02:47 51°22.918 3°12.279 11.915533 3.60514 31.334676  
2002-10-29 12:03:46 51°23.007 3°12 11.853367 3.617468 31.431652  
2002-10-29 12:04:47 51°23.12 3°11.738 11.828785 3.621999 31.46669  
2002-10-29 12:05:47 51°23.246 3°11.502 11.821623 3.634222 31.565238  
2002-10-29 12:06:47 51°23.379 3°11.276 11.912481 3.655192 31.735344  
2002-10-29 12:07:47 51°23.512 3°11.052 11.994706 3.668258 31.835786  
2002-10-29 12:08:47 51°23.642 3°10.823 11.856148 3.672895 31.87241  
2002-10-29 12:09:47 51°23.771 3°10.59 12.053648 3.677005 31.902586  
2002-10-29 12:10:47 51°23.9 3°10.356 12.164025 3.679639 31.922584  
2002-10-29 12:11:47 51°24.033 3°10.127 12.129296 3.678691 31.915467  
2002-10-29 12:12:47 51°24.172 3°9.901 11.888878 3.673738 31.87716  
2002-10-29 12:13:47 51°24.311 3°9.675 12.061785 3.675003 31.883946  
2002-10-29 12:14:47 51°24.449 3°9.449 12.03578 3.661725 31.780173  
2002-10-29 12:15:47 51°24.579 3°9.227 12.137151 3.689334 32.00459  
2002-10-29 12:16:47 51°24.692 3°8.986 12.327661 3.732331 32.340216  
2002-10-29 12:17:47 51°24.807 3°8.75 12.115218 3.750353 32.483798  
2002-10-29 12:18:46 51°24.918 3°8.522 12.163752 3.77649 32.684772  
2002-10-29 12:19:47 51°25.032 3°8.288 12.394992 3.795356 32.836135  
2002-10-29 12:20:47 51°25.142 3°8.063 12.249202 3.815909 32.986239  
2002-10-29 12:21:47 51°25.26 3°7.843 12.400917 3.829401 33.086225  
2002-10-29 12:22:47 51°25.388 3°7.638 12.487055 3.845211 33.198653  
2002-10-29 12:23:47 51°25.515 3°7.433 12.575564 3.86039 33.300646  
2002-10-29 12:24:47 51°25.642 3°7.225 12.506609 3.855752 33.274213  
2002-10-29 12:25:47 51°25.769 3°7.019 12.414708 3.852379 33.252248  
2002-10-29 12:26:47 51°25.895 3°6.813 12.377442 3.862392 33.323395  
2002-10-29 12:27:47 51°26.021 3°6.607 12.38563 3.872617 33.397203  
2002-10-29 12:28:47 51°26.153 3°6.412 12.408559 3.877361 33.435792  
2002-10-29 12:29:47 51°26.286 3°6.222 12.678772 3.891591 33.540279  
2002-10-29 12:30:47 51°26.421 3°6.033 12.521733 3.909828 33.666931  
2002-10-29 12:31:46 51°26.552 3°5.848 12.619345 3.931122 33.80717  
2002-10-29 12:32:47 51°26.69 3°5.657 12.662423 3.939555 33.855587  
2002-10-29 12:33:47 51°26.824 3°5.468 12.629847 3.940609 33.862164  
2002-10-29 12:34:47 51°26.943 3°5.293 12.807221 3.961377 33.98837  
2002-10-29 12:35:47 51°27.018 3°5.177 12.71668 3.980774 34.096879  
2002-10-29 12:36:46 51°27.081 3°5.101 12.813603 3.989103 34.142518  
2002-10-29 12:37:47 51°27.139 3°5.031 12.7183 3.993214 34.164105  
2002-10-29 12:38:47 51°27.192 3°4.962 12.769589 3.997221 34.188207  
2002-10-29 12:39:47 51°27.244 3°4.894 12.891355 3.999224 34.195301  
2002-10-29 12:40:46 51°27.295 3°4.829 12.902756 4.001965 34.210849  
2002-10-29 12:41:47 51°27.346 3°4.761 12.875237 4.004284 34.22166  
2002-10-29 12:42:46 51°27.396 3°4.695 12.884127 4.006814 34.237306  
2002-10-29 12:43:47 51°27.447 3°4.625 13.07099 4.008817 34.249336  
2002-10-29 12:44:47 51°27.497 3°4.557 12.838857 4.007447 34.239095  
2002-10-29 12:45:47 51°27.548 3°4.489 12.974217 4.005022 34.22587  
2002-10-29 12:46:46 51°27.597 3°4.421 12.811356 4.001438 34.203698  
2002-10-29 12:47:47 51°27.697 3°4.289 12.940223 3.999435 34.201558  
2002-10-29 12:48:46 51°27.849 3°4.143 12.946862 3.998907 34.199357  
2002-10-29 12:49:47 51°28.016 3°3.993 12.79868 3.999751 34.203162  
2002-10-29 12:50:47 51°28.177 3°3.843 12.932372 3.999856 34.209829  
2002-10-29 12:51:46 51°28.264 3°3.712 12.987217 3.997115 34.203478  
2002-10-29 12:52:47 51°28.281 3°3.599 12.956594 3.99701 34.207429  
2002-10-29 12:53:47 51°28.281 3°3.571 12.710964 3.999751 34.223692  
2002-10-29 12:54:47 51°28.282 3°3.553 12.787576 4.0007 34.227086  
2002-10-29 12:55:47 51°28.281 3°3.531 12.78888 4.001438 34.232717  
2002-10-29 12:56:47 51°28.281 3°3.505 12.8305 4.001649 34.233313  
2002-10-29 12:57:47 51°28.279 3°3.477 12.728066 4.002176 34.231263  
2002-10-29 12:58:47 51°28.277 3°3.449 12.917117 4.003652 34.230483  
2002-10-29 12:59:47 51°28.273 3°3.422 12.927123 4.008185 34.229162  
2002-10-29 13:00:47 51°28.264 3°3.384 12.915277 4.008606 34.230354  
2002-10-29 13:01:47 51°28.19 3°3.13 12.962648 4.00692 34.229117  
2002-10-29 13:02:47 51°28.102 3°2.774 12.852019 4.005022 34.223748  
2002-10-29 13:03:46 51°28.028 3°2.407 12.80349 4.003441 34.219272  
2002-10-29 13:04:47 51°27.961 3°2.022 12.82322 3.997537 34.170017  
2002-10-29 13:05:47 51°27.894 3°1.642 12.722756 4.002492 34.232866  
2002-10-29 13:06:47 51°27.825 3°1.265 13.036419 4.007553 34.261336  
2002-10-29 13:07:47 51°27.757 3°0.886 12.871869 4.009556 34.2677  
2002-10-29 13:08:47 51°27.69 3°0.508 13.091626 4.026213 34.321007  
2002-10-29 13:09:47 51°27.621 3°0.133 13.154882 4.040551 34.353522  
2002-10-29 13:10:47 51°27.553 2°59.759 13.300981 4.050672 34.381893  
2002-10-29 13:11:47 51°27.488 2°59.388 13.196229 4.053624 34.386638  
2002-10-29 13:12:47 51°27.429 2°59.016 13.172139 4.054046 34.385005  
2002-10-29 13:13:47 51°27.371 2°58.642 13.159889 4.056154 34.390906  
2002-10-29 13:14:47 51°27.315 2°58.264 13.103396 4.059212 34.39735  
2002-10-29 13:15:47 51°27.256 2°57.888 13.372641 4.061742 34.40583  
2002-10-29 13:16:47 51°27.197 2°57.512 13.228708 4.063113 34.411066  
2002-10-29 13:17:47 51°27.139 2°57.135 13.169144 4.063429 34.409842  
2002-10-29 13:18:47 51°27.082 2°56.757 13.342462 4.065538 34.41503  
2002-10-29 13:19:47 51°27.029 2°56.377 13.341525 4.070071 34.430496  
2002-10-29 13:20:47 51°26.985 2°55.995 13.364663 4.076713 34.456033  
2002-10-29 13:21:47 51°26.942 2°55.613 13.47338 4.085781 34.488279  
2002-10-29 13:22:47 51°26.898 2°55.23 13.332696 4.090526 34.504265  
2002-10-29 13:23:47 51°26.851 2°54.845 13.564546 4.097379 34.528184  
2002-10-29 13:24:47 51°26.804 2°54.46 13.796483 4.112351 34.571732  
2002-10-29 13:25:47 51°26.759 2°54.072 13.743981 4.12047 34.597648  
2002-10-29 13:26:47 51°26.714 2°53.687 13.776683 4.122051 34.601314  
2002-10-29 13:27:47 51°26.67 2°53.303 13.754884 4.120681 34.596834  
2002-10-29 13:28:47 51°26.626 2°52.923 13.714101 4.118361 34.591828  
2002-10-29 13:29:47 51°26.581 2°52.539 13.5437 4.118361 34.589733  
2002-10-29 13:30:47 51°26.537 2°52.158 13.971634 4.120259 34.590085  
2002-10-29 13:31:47 51°26.493 2°51.777 13.699156 4.123527 34.59771  
2002-10-29 13:32:47 51°26.449 2°51.397 13.563302 4.12532 34.601259  
2002-10-29 13:33:47 51°26.407 2°51.017 13.789839 4.126691 34.606434  
2002-10-29 13:34:47 51°26.362 2°50.635 13.905475 4.12785 34.610329  
2002-10-29 13:35:47 51°26.317 2°50.254 13.619408 4.128589 34.611667  
2002-10-29 13:36:47 51°26.275 2°49.874 13.77593 4.129432 34.613294  
2002-10-29 13:37:47 51°26.224 2°49.495 13.763968 4.131963 34.623751  
2002-10-29 13:38:47 51°26.164 2°49.119 13.800823 4.134282 34.62178  
2002-10-29 13:39:47 51°26.111 2°48.824 13.805428 4.139871 34.641339  
2002-10-29 13:40:47 51°26.058 2°48.669 14.014688 4.144616 34.651602  
2002-10-29 13:41:47 51°26.02 2°48.569 13.860492 4.148095 34.658382  
2002-10-29 13:42:47 51°26.017 2°48.541 13.836153 4.151048 34.663017  
2002-10-29 13:43:47 51°26.023 2°48.531 14.016321 4.152207 34.666896  
2002-10-29 13:44:47 51°26.025 2°48.513 13.832745 4.151469 34.660703  
2002-10-29 13:45:47 51°26.028 2°48.493 14.120463 4.151575 34.665854  
2002-10-29 13:46:47 51°26.031 2°48.469 14.059524 4.151997 34.667012  
2002-10-29 13:47:47 51°26.034 2°48.442 13.949588 4.153156 34.667418  
2002-10-29 13:48:47 51°26.037 2°48.416 13.840446 4.152735 34.669733  
2002-10-29 13:49:47 51°26.038 2°48.388 13.769639 4.153156 34.669501  
2002-10-29 13:50:47 51°26.039 2°48.361 13.844739 4.153262 34.670485  
2002-10-29 13:51:47 51°26.012 2°48.187 13.879161 4.153262 34.671874  
2002-10-29 13:52:47 51°25.938 2°47.871 13.998706 4.152945 34.66684  
2002-10-29 13:53:47 51°25.742 2°47.678 13.829115 4.155054 34.675404  
2002-10-29 13:54:47 51°25.521 2°47.545 13.975963 4.155687 34.674364  
2002-10-29 13:55:47 51°25.321 2°47.348 14.122402 4.156109 34.675521  
2002-10-29 13:56:47 51°25.115 2°47.163 14.343772 4.156214 34.673034  
2002-10-29 13:57:47 51°24.91 2°46.977 14.125046 4.156425 34.673613  
2002-10-29 13:58:47 51°24.703 2°46.792 13.977862 4.15632 34.67263  
2002-10-29 13:59:47 51°24.497 2°46.603 13.936021 4.155898 34.672166  
2002-10-29 14:00:47 51°24.29 2°46.411 13.930364 4.15516 34.669447  
2002-10-29 14:01:47 51°24.083 2°46.219 13.961562 4.153894 34.664586  
2002-10-29 14:02:47 51°23.877 2°46.029 13.913168 4.15284 34.659608  
2002-10-29 14:03:47 51°23.667 2°45.843 13.936949 4.151469 34.657232  
2002-10-29 14:04:47 51°23.458 2°45.661 13.817693 4.149677 34.650918  
2002-10-29 14:05:47 51°23.244 2°45.482 13.844783 4.147462 34.638583  
2002-10-29 14:06:47 51°23.031 2°45.303 13.794003 4.145459 34.630989  
2002-10-29 14:07:47 51°22.818 2°45.129 13.888273 4.143139 34.619745  
2002-10-29 14:08:47 51°22.602 2°44.962 13.807111 4.141557 34.617473  
2002-10-29 14:09:47 51°22.387 2°44.794 13.99248 4.141557 34.620947  
2002-10-29 14:10:51 51°22.157 2°44.617 13.859386 4.143034 34.629179  
2002-10-29 14:11:53 51°21.948 2°44.412 13.72891 4.145353 34.639034  
2002-10-29 14:12:52 51°21.749 2°44.214 13.739815 4.146935 34.644772  
2002-10-29 14:13:51 51°21.551 2°44.018 13.965052 4.14704 34.634646  
2002-10-29 14:14:51 51°21.349 2°43.818 13.930099 4.146513 34.625561  
2002-10-29 14:15:51 51°21.148 2°43.619 13.823847 4.145669 34.616301  
2002-10-29 14:16:51 51°20.973 2°43.368 13.748413 4.144088 34.600155  
2002-10-29 14:17:51 51°20.845 2°43.054 13.853324 4.144615 34.607848  
2002-10-29 14:18:51 51°20.765 2°42.702 13.894686 4.14451 34.608251  
2002-10-29 14:19:51 51°20.724 2°42.335 14.031726 4.144826 34.608429  
2002-10-29 14:20:51 51°20.698 2°41.965 13.972341 4.14472 34.612301  
2002-10-29 14:21:51 51°20.669 2°41.595 13.759537 4.145353 34.606414  
2002-10-29 14:22:51 51°20.639 2°41.224 13.90804 4.145353 34.602255  
2002-10-29 14:23:52 51°20.608 2°40.848 13.797236 4.144931 34.596241  
2002-10-29 14:24:50 51°20.576 2°40.49 13.936242 4.144193 34.593514  
2002-10-29 14:25:50 51°20.544 2°40.118 14.043817 4.143982 34.595012  
2002-10-29 14:26:50 51°20.513 2°39.747 13.939203 4.144088 34.595302  
2002-10-29 14:27:55 51°20.476 2°39.346 13.905652 4.145247 34.601964  
2002-10-29 14:28:58 51°20.442 2°38.958 13.949235 4.14588 34.6044  
2002-10-29 14:29:55 51°20.41 2°38.607 13.916749 4.146724 34.606724  
2002-10-29 14:30:55 51°20.374 2°38.239 13.922098 4.147673 34.61211  
2002-10-29 14:31:55 51°20.343 2°37.872 14.001267 4.149254 34.620622  
2002-10-29 14:32:58 51°20.319 2°37.488 13.902866 4.15052 34.626183  
2002-10-29 14:33:57 51°20.3 2°37.126 13.76574 4.151996 34.633016  
2002-10-29 14:34:57 51°20.28 2°36.757 13.951532 4.153367 34.64025  
2002-10-29 14:35:58 51°20.26 2°36.381 14.031814 4.155054 34.649738  
2002-10-29 14:36:58 51°20.239 2°36.016 13.860271 4.156847 34.65882  
2002-10-29 14:37:59 51°20.218 2°35.643 13.93938 4.159588 34.676742  
2002-10-29 14:38:58 51°20.197 2°35.282 14.026032 4.160854 34.680906  
2002-10-29 14:39:59 51°20.18 2°34.912 14.185794 4.16349 34.690905  
2002-10-29 14:40:59 51°20.163 2°34.547 14.299785 4.166337 34.706328  
2002-10-29 14:41:58 51°20.145 2°34.184 13.948174 4.166021 34.697145  
2002-10-29 14:42:59 51°20.125 2°33.807 13.957585 4.166442 34.692067  
2002-10-29 14:43:58 51°20.106 2°33.445 14.037595 4.167708 34.69761  
2002-10-29 14:44:58 51°20.087 2°33.079 13.981969 4.169184 34.700268  
2002-10-29 14:45:59 51°20.067 2°32.705 14.043287 4.171398 34.704255  
2002-10-29 14:46:58 51°20.051 2°32.345 14.168267 4.174034 34.708011  
2002-10-29 14:47:59 51°20.04 2°31.968 14.175578 4.175405 34.709687  
2002-10-29 14:48:59 51°20.03 2°31.6 14.027136 4.176143 34.714472  
2002-10-29 14:49:59 51°20.02 2°31.238 14.03861 4.176776 34.718969  
2002-10-29 14:50:59 51°20.009 2°30.876 14.121124 4.178358 34.723293  
2002-10-29 14:52:02 51°20.013 2°30.503 14.072757 4.180361 34.729461  
2002-10-29 14:53:07 51°20.034 2°30.221 14.168839 4.184685 34.744725  
2002-10-29 14:54:10 51°20.048 2°30.067 14.105828 4.187532 34.754568  
2002-10-29 14:55:08 51°20.055 2°29.994 14.339467 4.188059 34.754625  
2002-10-29 14:56:10 51°20.062 2°29.95 14.230648 4.189535 34.751059  
2002-10-29 14:57:14 51°20.068 2°29.924 14.120903 4.189641 34.755488  
2002-10-29 14:58:14 51°20.08 2°29.911 14.263378 4.188902 34.752093  
2002-10-29 14:59:14 51°20.092 2°29.903 14.2581 4.188692 34.752208  
2002-10-29 15:00:14 51°20.105 2°29.899 14.115658 4.188375 34.750655  
2002-10-29 15:01:14 51°20.118 2°29.895 14.44947 4.189113 34.753359  
2002-10-29 15:02:14 51°20.132 2°29.892 14.133331 4.189641 34.749276  
2002-10-29 15:03:15 51°20.146 2°29.889 14.208114 4.19059 34.749795  
2002-10-29 15:04:14 51°20.133 2°29.786 14.169764 4.190484 34.746748  
2002-10-29 15:05:14 51°20.012 2°29.733 14.231088 4.188902 34.745881  
2002-10-29 15:06:14 51°19.843 2°29.936 14.227875 4.188691 34.746686  
2002-10-29 15:07:14 51°19.663 2°30.162 14.130643 4.189957 34.75428  
2002-10-29 15:08:14 51°19.483 2°30.392 14.122358 4.191328 34.7594  
2002-10-29 15:09:14 51°19.309 2°30.628 14.144127 4.190168 34.761069  
2002-10-29 15:10:14 51°19.137 2°30.864 14.27147 4.188481 34.756467  
2002-10-29 15:11:14 51°18.972 2°31.116 14.182183 4.185317 34.743689  
2002-10-29 15:12:14 51°18.808 2°31.367 14.081489 4.181943 34.733783  
2002-10-29 15:13:14 51°18.643 2°31.616 14.100317 4.179518 34.730612  
2002-10-29 15:14:14 51°18.476 2°31.864 13.97954 4.176987 34.720928  
2002-10-29 15:15:14 51°18.308 2°32.112 13.96165 4.175405 34.717294  
2002-10-29 15:16:14 51°18.143 2°32.363 14.132009 4.173824 34.716427  
2002-10-29 15:17:14 51°17.977 2°32.614 13.984884 4.172875 34.7166  
2002-10-29 15:18:14 51°17.812 2°32.869 14.137253 4.172769 34.713543  
2002-10-29 15:19:14 51°17.646 2°33.124 14.012437 4.174562 34.723291  
2002-10-29 15:20:19 51°17.467 2°33.397 14.080034 4.178569 34.744624  
2002-10-29 15:21:20 51°17.301 2°33.654 14.147343 4.17762 34.744109  
2002-10-29 15:22:18 51°17.142 2°33.899 14.196757 4.177514 34.740359  
2002-10-29 15:23:21 51°16.97 2°34.167 14.230868 4.180572 34.754939  
2002-10-29 15:24:19 51°16.811 2°34.419 13.898179 4.179518 34.770765  
2002-10-29 15:25:19 51°16.643 2°34.679 13.882523 4.174773 34.752964  
2002-10-29 15:26:19 51°16.475 2°34.941 13.98219 4.172875 34.742233  
2002-10-29 15:27:19 51°16.31 2°35.201 14.102874 4.169079 34.724923  
2002-10-29 15:28:21 51°16.14 2°35.461 13.994909 4.165493 34.707485  
2002-10-29 15:29:19 51°15.986 2°35.713 13.975212 4.165388 34.697491  
2002-10-29 15:30:19 51°15.824 2°35.973 14.008993 4.166442 34.697608  
2002-10-29 15:31:19 51°15.664 2°36.232 13.813399 4.163912 34.692061  
2002-10-29 15:32:19 51°15.505 2°36.492 13.906669 4.155476 34.659216  
2002-10-29 15:33:21 51°15.347 2°36.774 13.879427 4.149571 34.642993  
2002-10-29 15:34:20 51°15.199 2°37.051 13.904989 4.1482 34.645473  
2002-10-29 15:35:19 51°15.05 2°37.33 13.794091 4.149888 34.672341  
2002-10-29 15:36:20 51°14.898 2°37.618 13.959618 4.151048 34.685955  
2002-10-29 15:37:21 51°14.741 2°37.909 13.645336 4.14683 34.670206  
2002-10-29 15:38:20 51°14.586 2°38.177 13.591783 4.130803 34.611497  
2002-10-29 15:39:21 51°14.418 2°38.435 13.398264 4.109504 34.533125  
2002-10-29 15:40:18 51°14.251 2°38.652 13.388194 4.099276 34.488702  
2002-10-29 15:41:21 51°14.057 2°38.874 13.426637 4.098749 34.483747  
2002-10-29 15:42:20 51°13.888 2°39.116 13.38249 4.095902 34.475137  
2002-10-29 15:43:19 51°13.706 2°39.33 13.352895 4.088943 34.449489  
2002-10-29 15:44:19 51°13.514 2°39.532 13.275813 4.077978 34.414724  
2002-10-29 15:45:19 51°13.325 2°39.735 13.161857 4.064799 34.384198  
2002-10-29 15:46:21 51°13.129 2°39.946 13.453574 4.060476 34.365087  
2002-10-29 15:47:19 51°12.946 2°40.142 13.36658 4.059316 34.354827  
2002-10-29 15:48:19 51°12.757 2°40.347 13.155329 4.056681 34.348139  
2002-10-29 15:49:19 51°12.568 2°40.549 13.123709 4.05394 34.350276  
2002-10-29 15:50:19 51°12.381 2°40.755 13.166596 4.050355 34.344435  
2002-10-29 15:51:19 51°12.194 2°40.963 13.074751 4.047825 34.342254  
2002-10-29 15:52:21 51°12.001 2°41.177 13.178576 4.046244 34.342035  
2002-10-29 15:53:20 51°11.817 2°41.383 13.141779 4.044557 34.33097  
2002-10-29 15:54:19 51°11.632 2°41.594 13.027594 4.042132 34.310097  
2002-10-29 15:55:19 51°11.455 2°41.798 12.998782 4.039074 34.281121  
2002-10-29 15:56:20 51°11.338 2°41.963 13.15676 4.039179 34.274397  
2002-10-29 15:57:21 51°11.265 2°42.052 13.009403 4.040761 34.282361  
2002-10-29 15:58:21 51°11.232 2°42.095 13.147101 4.040972 34.287166  
2002-10-29 15:59:22 51°11.241 2°42.127 13.10089 4.039812 34.288115  
2002-10-29 16:00:21 51°11.252 2°42.158 13.209187 4.039074 34.287442  
2002-10-29 16:01:21 51°11.267 2°42.189 13.028848 4.039707 34.292033  
2002-10-29 16:02:21 51°11.283 2°42.219 13.208919 4.040234 34.298434  
2002-10-29 16:03:18 51°11.299 2°42.245 13.504079 4.039707 34.29133  
2002-10-29 16:04:18 51°11.314 2°42.272 13.097892 4.039812 34.294437  
2002-10-29 16:05:21 51°11.328 2°42.302 13.211689 4.040339 34.298028  
2002-10-29 16:06:21 51°11.342 2°42.332 13.067811 4.039812 34.290222  
2002-10-29 16:07:21 51°11.356 2°42.362 13.215263 4.039706 34.287818  
2002-10-29 16:08:21 51°11.37 2°42.392 13.216067 4.039812 34.288115  
2002-10-29 16:09:19 51°11.384 2°42.425 13.105052 4.040761 34.297107  
2002-10-29 16:10:21 51°11.399 2°42.511 13.363415 4.040444 34.2913  
2002-10-29 16:11:21 51°11.448 2°42.841 13.323018 4.039812 34.287412  
2002-10-29 16:12:20 51°11.502 2°43.216 13.10353 4.040128 34.29603  
2002-10-29 16:13:21 51°11.551 2°43.609 13.236078 4.043924 34.329897  
2002-10-29 16:14:21 51°11.599 2°43.998 12.995913 4.042448 34.334194  
2002-10-29 16:15:20 51°11.648 2°44.381 13.159487 4.039074 34.319085  
2002-10-29 16:16:19 51°11.697 2°44.766 13.123038 4.035806 34.310599  
2002-10-29 16:17:20 51°11.749 2°45.163 13.057379 4.02948 34.280819  
2002-10-29 16:18:19 51°11.803 2°45.545 12.924969 4.024947 34.260289  
2002-10-29 16:19:20 51°11.869 2°45.938 13.116193 4.020097 34.240256  
2002-10-29 16:20:19 51°11.934 2°46.317 12.834723 4.016407 34.227714  
2002-10-29 16:21:20 51°12.007 2°46.706 12.870702 4.013456 34.222891  
2002-10-29 16:22:19 51°12.079 2°47.082 12.881613 4.007657 34.200834  
2002-10-29 16:23:21 51°12.16 2°47.473 12.841777 4.002491 34.182663  
2002-10-29 16:24:21 51°12.25 2°47.845 12.825063 3.997958 34.164857  
2002-10-29 16:25:21 51°12.37 2°48.195 12.882151 3.995639 34.157563  
2002-10-29 16:26:21 51°12.496 2°48.544 12.811626 3.993741 34.151465  
2002-10-29 16:27:21 51°12.62 2°48.893 12.870477 3.994058 34.156603  
2002-10-29 16:28:21 51°12.74 2°49.246 12.869669 3.993636 34.158939  
2002-10-29 16:29:20 51°12.856 2°49.596 12.793106 3.993847 34.16378  
2002-10-29 16:30:21 51°12.977 2°49.956 12.723971 3.993742 34.164895  
2002-10-29 16:31:20 51°13.096 2°50.304 12.862484 3.994796 34.17001  
2002-10-29 16:32:21 51°13.216 2°50.665 12.928155 3.992476 34.15918  
2002-10-29 16:33:21 51°13.333 2°51.021 13.065483 3.988892 34.132728  
2002-10-29 16:34:21 51°13.451 2°51.377 12.878874 3.987416 34.120047  
2002-10-29 16:35:21 51°13.569 2°51.734 13.08339 3.983304 34.095614  
2002-10-29 16:36:20 51°13.686 2°52.084 12.943453 3.979298 34.058057  
2002-10-29 16:37:21 51°13.807 2°52.446 12.795444 3.978665 34.047078  
2002-10-29 16:38:21 51°13.927 2°52.799 12.749124 3.972761 33.997049  
2002-10-29 16:39:21 51°14.048 2°53.151 12.770714 3.966963 33.95365  
2002-10-29 16:40:21 51°14.164 2°53.507 12.65116 3.96359 33.93269  
2002-10-29 16:41:20 51°14.244 2°53.879 12.692281 3.961481 33.914662  
2002-10-29 16:42:20 51°14.296 2°54.267 12.728921 3.960111 33.898762  
2002-10-29 16:43:21 51°14.339 2°54.655 12.764417 3.958424 33.884059  
2002-10-29 16:44:21 51°14.352 2°55.043 12.623762 3.958107 33.881039  
2002-10-29 16:45:20 51°14.244 2°55.3 12.688634 3.960321 33.898667  
2002-10-29 16:46:20 51°14.136 2°55.42 12.628946 3.809896 32.55718  
2002-10-29 16:47:18 51°14.051 2°55.484 12.530038 3.711774 31.679383  
2002-10-29 16:48:19 51°13.973 2°55.536 12.732476 3.687325 31.458546  
2002-10-29 16:49:19 51°13.9 2°55.585 21.453978 0.055306 0.356077